To NAV CANADA Home Page Login to a new session Search on AWWS site Feedback and Comments Disclaimer Vers la page française équivalente Tips FAQ What's new on the site To the Forecasts and Observations / NOTAM section To "File a Flight Plan" website Publications and other links Update of the User's profile FIC Telephone Numbers My Weather Data Folder Route Weather Data Regional Weather Data Local Weather Data To the Forecasts and Observations / NOTAM section
Request Generated 05/28/2016 at 11:41:18 UTC . Weather information available at that time is displayed.

METAR/TAF

MAKKOVIK/NL    

METAR CYFT 281100Z 28006KT 15SM -FZRA OVC005 M00/M01 A3012 RMK ST8 ST
RAGGED 4-7 SLP205=
SPECI CYFT 281023Z 27006KT 15SM -FZRA BKN007 OVC100 M00/M01 A3011 RMK
ST6AS2 SLP203=
METAR CYFT 281000Z 25005KT 15SM -FZRA SCT008 OVC100 M00/M01 A3011 RMK
ST4AS4 SLP201=
METAR CYFT 280900Z 24003KT 210V270 15SM FZRA FEW008 OVC100 M00/M02
A3010 RMK ST1AS7 SLP198=

CYFT - No TAF is issued for this station

Your time UTC time
Weather data provided by Environment Canada and NAV CANADA